Time;durP1;ratioP1;P1;durP2;ratioP2;P2;SDS_P1;SDS_P2;PMS_P1;PMS_P2;Temp;Humidity;BMP_temperature;BMP_pressure;BME280_temperature;BME280_humidity;BME280_pressure;Samples;Min_cycle;Max_cycle;Signal;HPM_P1;HPM_P2
2023/03/10 00:00:19;;;;;;;1.90;1.48;;;17.90;44.90;;;;;;4945807;28;20665;-79
2023/03/10 00:02:48;;;;;;;2.10;1.40;;;17.90;44.90;;;;;;4961123;28;20284;-79
2023/03/10 00:05:16;;;;;;;1.83;1.33;;;17.80;45.50;;;;;;4961957;28;20194;-79
2023/03/10 00:07:43;;;;;;;2.35;1.58;;;17.90;45.00;;;;;;4960958;28;20218;-79
2023/03/10 00:10:12;;;;;;;2.15;1.50;;;17.80;45.00;;;;;;4960612;28;20197;-79
2023/03/10 00:12:39;;;;;;;2.67;1.30;;;17.80;45.00;;;;;;4960799;28;20241;-79
2023/03/10 00:15:09;;;;;;;2.60;1.33;;;17.80;45.10;;;;;;4961315;28;20209;-79
2023/03/10 00:17:36;;;;;;;1.90;1.30;;;17.80;45.00;;;;;;4960530;28;20240;-79
2023/03/10 00:20:06;;;;;;;3.17;1.40;;;17.80;45.10;;;;;;4960546;28;20202;-79
2023/03/10 00:22:34;;;;;;;2.72;1.40;;;17.80;45.20;;;;;;4960343;28;20214;-79
2023/03/10 00:25:01;;;;;;;1.50;1.40;;;17.80;45.20;;;;;;4960479;28;20201;-79
2023/03/10 00:27:29;;;;;;;1.52;1.20;;;17.70;45.10;;;;;;4944360;28;20233;-79
2023/03/10 00:29:56;;;;;;;1.67;1.33;;;17.80;45.20;;;;;;4944635;28;20571;-79
2023/03/10 00:32:25;;;;;;;2.45;1.33;;;17.70;45.20;;;;;;4960490;28;20281;-79
2023/03/10 00:34:52;;;;;;;3.55;1.48;;;17.70;45.20;;;;;;4960807;28;20190;-79
2023/03/10 00:37:20;;;;;;;1.80;1.48;;;17.70;45.20;;;;;;4947529;28;20564;-79
2023/03/10 00:39:51;;;;;;;1.25;1.10;;;17.70;45.20;;;;;;4961437;28;20229;-80
2023/03/10 00:42:18;;;;;;;1.88;1.23;;;17.70;45.10;;;;;;4960614;28;20645;-80
2023/03/10 00:44:46;;;;;;;1.50;1.40;;;17.70;45.20;;;;;;4961187;28;20256;-80
2023/03/10 00:47:13;;;;;;;3.90;1.33;;;17.70;45.20;;;;;;4960819;28;20237;-80
2023/03/10 00:49:41;;;;;;;1.50;1.13;;;17.70;45.20;;;;;;4960232;28;20202;-79
2023/03/10 00:52:08;;;;;;;4.38;1.48;;;17.70;45.30;;;;;;4960434;28;20205;-80
2023/03/10 00:54:38;;;;;;;2.42;1.30;;;17.60;45.20;;;;;;4960651;28;20225;-80
2023/03/10 00:57:05;;;;;;;1.65;1.30;;;17.60;45.30;;;;;;4960126;28;20219;-80
2023/03/10 00:59:33;;;;;;;1.85;1.40;;;17.60;45.30;;;;;;4944883;28;20208;-80
2023/03/10 01:02:00;;;;;;;1.77;1.30;;;17.60;45.40;;;;;;4958414;28;20281;-80
2023/03/10 01:04:29;;;;;;;1.77;1.20;;;17.60;45.40;;;;;;4959832;28;20205;-80
2023/03/10 01:06:58;;;;;;;2.00;1.20;;;17.60;45.40;;;;;;4959539;28;20260;-80
2023/03/10 01:09:25;;;;;;;2.33;1.20;;;17.60;45.40;;;;;;4960033;28;20301;-80
2023/03/10 01:11:53;;;;;;;1.95;1.25;;;17.50;45.30;;;;;;4960486;28;20655;-80
2023/03/10 01:14:20;;;;;;;2.53;1.40;;;17.60;45.40;;;;;;4959600;28;20202;-80
2023/03/10 01:16:49;;;;;;;2.40;1.50;;;17.60;45.50;;;;;;4943753;28;20727;-80
2023/03/10 01:19:19;;;;;;;1.50;1.13;;;17.60;45.60;;;;;;4959384;28;20657;-80
2023/03/10 01:21:47;;;;;;;3.78;1.48;;;17.50;45.50;;;;;;4959822;28;20229;-80
2023/03/10 01:24:15;;;;;;;1.73;1.30;;;17.50;45.50;;;;;;4943361;28;20194;-80
2023/03/10 01:26:43;;;;;;;2.97;1.40;;;17.50;45.50;;;;;;4943603;28;20669;-80
2023/03/10 01:29:12;;;;;;;3.58;1.50;;;17.50;45.60;;;;;;4959702;28;20284;-80
2023/03/10 01:31:40;;;;;;;2.85;1.45;;;17.50;45.60;;;;;;4977769;28;20288;-79
2023/03/10 01:34:07;;;;;;;1.90;1.13;;;17.50;45.60;;;;;;4943965;28;20206;-79
2023/03/10 01:36:34;;;;;;;2.63;1.30;;;17.50;45.60;;;;;;4960182;28;20229;-79
2023/03/10 01:39:01;;;;;;;2.25;1.30;;;17.50;45.60;;;;;;4959850;28;20209;-79
2023/03/10 01:41:30;;;;;;;1.50;1.30;;;17.50;45.60;;;;;;4959547;28;20214;-79
2023/03/10 01:43:58;;;;;;;1.60;1.33;;;17.40;45.60;;;;;;4960036;28;20225;-79
2023/03/10 01:46:50;;;;;;;2.35;1.40;;;17.50;45.70;;;;;;4959101;28;20222;-79
2023/03/10 01:49:38;;;;;;;1.50;1.30;;;17.40;45.60;;;;;;4961029;28;20213;-79
2023/03/10 01:52:08;;;;;;;1.20;1.10;;;17.40;45.70;;;;;;4961036;28;20514;-79
2023/03/10 01:54:40;;;;;;;1.48;1.30;;;17.40;45.70;;;;;;4960458;28;20642;-79
2023/03/10 01:57:09;;;;;;;1.65;1.30;;;17.40;45.70;;;;;;4960531;28;20592;-79
2023/03/10 01:59:36;;;;;;;2.03;1.30;;;17.40;45.80;;;;;;4960252;28;20194;-79
2023/03/10 02:02:04;;;;;;;1.80;1.38;;;17.40;45.80;;;;;;4944017;28;20301;-79
2023/03/10 02:04:34;;;;;;;1.92;1.33;;;17.40;45.80;;;;;;4961703;28;20221;-80
2023/03/10 02:07:02;;;;;;;1.48;1.20;;;17.40;45.80;;;;;;4962005;28;20237;-80
2023/03/10 02:09:29;;;;;;;1.40;1.10;;;17.40;45.80;;;;;;4962301;28;20205;-80
2023/03/10 02:11:56;;;;;;;1.35;1.25;;;17.30;45.80;;;;;;4959729;28;20194;-80
2023/03/10 02:14:25;;;;;;;1.80;1.40;;;17.30;45.80;;;;;;4977536;28;20720;-80
2023/03/10 02:16:52;;;;;;;1.42;1.30;;;17.30;45.80;;;;;;4959802;28;20214;-80
2023/03/10 02:19:25;;;;;;;1.95;1.17;;;17.30;45.80;;;;;;4959458;28;20202;-80
2023/03/10 02:21:55;;;;;;;1.77;1.13;;;17.30;45.80;;;;;;4960507;28;20210;-80
2023/03/10 02:24:25;;;;;;;1.80;1.33;;;17.30;45.80;;;;;;4959371;28;20202;-80
2023/03/10 02:26:55;;;;;;;1.73;1.20;;;17.30;45.80;;;;;;4943418;28;20241;-80
2023/03/10 02:29:25;;;;;;;1.42;1.02;;;17.30;45.90;;;;;;4977292;28;20266;-80
2023/03/10 02:31:53;;;;;;;1.38;1.15;;;17.30;45.80;;;;;;4961346;28;20265;-80
2023/03/10 02:34:20;;;;;;;1.35;1.25;;;17.20;45.80;;;;;;4976667;28;20206;-80
2023/03/10 02:36:48;;;;;;;1.58;1.00;;;17.20;45.80;;;;;;4966405;28;20645;-80
2023/03/10 02:39:15;;;;;;;1.45;1.20;;;17.20;45.80;;;;;;4964841;28;20212;-80
2023/03/10 02:41:42;;;;;;;1.25;1.10;;;17.20;45.90;;;;;;4953845;28;20214;-80
2023/03/10 02:44:14;;;;;;;1.75;1.45;;;17.20;45.90;;;;;;4972367;28;20222;-80
2023/03/10 02:46:42;;;;;;;1.05;0.95;;;17.20;45.90;;;;;;4971412;28;20222;-80
2023/03/10 02:49:10;;;;;;;1.40;1.30;;;17.20;46.50;;;;;;4963571;28;20657;-80
2023/03/10 02:51:42;;;;;;;2.20;1.30;;;17.20;46.00;;;;;;4965029;28;20614;-80
2023/03/10 02:54:12;;;;;;;1.40;1.30;;;17.20;45.90;;;;;;4964002;28;20322;-80
2023/03/10 02:56:41;;;;;;;1.00;1.00;;;17.20;46.00;;;;;;4964357;28;20215;-80
2023/03/10 02:59:09;;;;;;;1.15;1.05;;;17.20;46.00;;;;;;4962672;28;20683;-80
2023/03/10 03:01:44;;;;;;;1.70;1.15;;;17.20;46.10;;;;;;4962206;28;20213;-80
2023/03/10 03:04:12;;;;;;;1.13;0.90;;;17.20;46.00;;;;;;4959423;28;20201;-80
2023/03/10 03:06:39;;;;;;;1.15;1.05;;;17.20;46.00;;;;;;4942784;28;20218;-80
2023/03/10 03:09:08;;;;;;;1.70;1.10;;;17.20;46.10;;;;;;4942760;28;20213;-80
2023/03/10 03:11:36;;;;;;;1.17;1.08;;;17.20;46.10;;;;;;4958616;28;20561;-80
2023/03/10 03:14:06;;;;;;;1.52;1.15;;;17.20;46.10;;;;;;4958899;28;20558;-80
2023/03/10 03:16:34;;;;;;;1.13;1.02;;;17.20;46.10;;;;;;4947738;28;20317;-80
2023/03/10 03:19:06;;;;;;;1.20;1.10;;;17.20;46.20;;;;;;4958802;28;20274;-80
2023/03/10 03:21:33;;;;;;;1.13;1.00;;;17.20;46.20;;;;;;4959166;28;20291;-80
2023/03/10 03:24:00;;;;;;;1.10;1.00;;;17.20;46.20;;;;;;4959978;28;20217;-80
2023/03/10 03:26:28;;;;;;;0.85;0.85;;;17.10;46.10;;;;;;4965089;28;20448;-80
2023/03/10 03:29:00;;;;;;;1.10;1.00;;;17.10;46.20;;;;;;4950160;28;20198;-80
2023/03/10 03:31:31;;;;;;;1.00;1.00;;;17.20;46.30;;;;;;4965423;28;20222;-80
2023/03/10 03:34:14;;;;;;;1.00;0.90;;;17.20;46.30;;;;;;4965741;28;20205;-80
2023/03/10 03:36:41;;;;;;;1.23;1.00;;;17.10;46.20;;;;;;4968028;28;20222;-80
2023/03/10 03:39:16;;;;;;;1.05;0.77;;;17.20;46.30;;;;;;4965076;28;20199;-80
2023/03/10 03:41:45;;;;;;;1.95;1.10;;;17.20;46.30;;;;;;4961357;28;20194;-80
2023/03/10 03:44:13;;;;;;;1.00;1.00;;;17.10;46.20;;;;;;4962062;28;20565;-79
2023/03/10 03:46:41;;;;;;;1.70;1.08;;;17.20;46.30;;;;;;4962069;28;20230;-79
2023/03/10 03:49:09;;;;;;;0.80;0.80;;;17.20;46.20;;;;;;4945558;28;20208;-79
2023/03/10 03:51:38;;;;;;;1.55;1.17;;;17.20;46.20;;;;;;4962242;28;20198;-79
2023/03/10 03:54:06;;;;;;;0.98;0.98;;;17.20;46.30;;;;;;4963392;28;20209;-79
2023/03/10 03:56:36;;;;;;;0.80;0.80;;;17.10;46.20;;;;;;4963138;28;20218;-79
2023/03/10 03:59:04;;;;;;;1.30;1.20;;;17.20;46.30;;;;;;4963158;28;20226;-79
2023/03/10 04:01:31;;;;;;;1.27;1.13;;;17.10;46.20;;;;;;4947178;28;20211;-79
2023/03/10 04:04:00;;;;;;;1.15;1.00;;;17.20;46.30;;;;;;4962643;28;20309;-79
2023/03/10 04:06:27;;;;;;;1.80;1.00;;;17.10;46.20;;;;;;4962645;28;20218;-79
2023/03/10 04:08:56;;;;;;;1.63;1.00;;;17.20;46.30;;;;;;4962581;28;20276;-79
2023/03/10 04:11:26;;;;;;;0.85;0.85;;;17.20;46.30;;;;;;4962085;28;20204;-79
2023/03/10 04:13:53;;;;;;;0.82;0.82;;;17.20;46.30;;;;;;4961832;28;20656;-79
2023/03/10 04:16:21;;;;;;;0.88;0.88;;;17.20;46.30;;;;;;4961189;28;20222;-79
2023/03/10 04:18:48;;;;;;;0.90;0.90;;;17.20;46.50;;;;;;4960477;28;20208;-79
2023/03/10 04:21:17;;;;;;;0.60;0.60;;;17.20;46.50;;;;;;4960973;28;20198;-79
2023/03/10 04:23:45;;;;;;;1.00;0.93;;;17.20;46.50;;;;;;4960783;28;20235;-79
2023/03/10 04:26:18;;;;;;;0.77;0.77;;;17.20;46.40;;;;;;4946136;28;20281;-79
2023/03/10 04:28:45;;;;;;;1.40;0.90;;;17.20;46.40;;;;;;4960604;28;20261;-79
2023/03/10 04:31:15;;;;;;;1.42;0.80;;;17.20;46.40;;;;;;4960745;28;20253;-79
2023/03/10 04:33:44;;;;;;;0.90;0.90;;;17.20;46.30;;;;;;4960013;28;20732;-79
2023/03/10 04:36:12;;;;;;;0.88;0.88;;;17.20;46.30;;;;;;4960250;28;20242;-79
2023/03/10 04:38:40;;;;;;;1.00;0.90;;;17.20;46.30;;;;;;4959815;28;20198;-79
2023/03/10 04:41:08;;;;;;;0.88;0.88;;;17.30;46.30;;;;;;4960436;28;20198;-79
2023/03/10 04:43:41;;;;;;;1.20;1.00;;;17.30;46.30;;;;;;4960069;28;20582;-79
2023/03/10 04:46:08;;;;;;;0.90;0.90;;;17.30;46.20;;;;;;4960010;28;20406;-79
2023/03/10 04:48:36;;;;;;;1.17;1.08;;;17.30;46.20;;;;;;4960838;28;20198;-79
2023/03/10 04:51:05;;;;;;;0.93;0.90;;;17.30;46.20;;;;;;4960209;28;20341;-79
2023/03/10 04:53:37;;;;;;;1.85;1.00;;;17.30;46.20;;;;;;4960063;28;20198;-79
2023/03/10 04:56:06;;;;;;;1.67;0.90;;;17.30;46.20;;;;;;4960282;28;20297;-79
2023/03/10 04:58:34;;;;;;;1.15;0.90;;;17.30;46.10;;;;;;4959904;28;20205;-79
2023/03/10 05:01:08;;;;;;;0.82;0.80;;;17.30;46.70;;;;;;4960218;28;20253;-79
2023/03/10 05:03:38;;;;;;;0.90;0.82;;;17.30;46.00;;;;;;4960144;28;20214;-79
2023/03/10 05:06:12;;;;;;;0.73;0.60;;;17.30;45.90;;;;;;4959361;28;20202;-79
2023/03/10 05:08:40;;;;;;;0.82;0.80;;;17.40;46.00;;;;;;4959991;28;20225;-79
2023/03/10 05:11:07;;;;;;;0.95;0.80;;;17.40;45.90;;;;;;4959656;28;20232;-79
2023/03/10 05:13:34;;;;;;;0.98;0.88;;;17.40;45.80;;;;;;4959259;28;20249;-79
2023/03/10 05:16:04;;;;;;;0.77;0.65;;;17.40;45.80;;;;;;4959628;28;20205;-80
2023/03/10 05:18:31;;;;;;;0.80;0.80;;;17.40;45.80;;;;;;4959786;28;20193;-80
2023/03/10 05:20:59;;;;;;;0.70;0.70;;;17.30;45.70;;;;;;4959818;28;20230;-80
2023/03/10 05:23:27;;;;;;;0.95;0.80;;;17.40;45.70;;;;;;4959256;28;20214;-80
2023/03/10 05:25:54;;;;;;;0.90;0.80;;;17.40;45.60;;;;;;4958935;28;20604;-80
2023/03/10 05:28:23;;;;;;;0.73;0.73;;;17.40;45.70;;;;;;4943982;28;20202;-79
2023/03/10 05:30:52;;;;;;;1.30;1.00;;;17.40;45.70;;;;;;4959507;28;20202;-79
2023/03/10 05:33:20;;;;;;;0.80;0.70;;;17.30;45.60;;;;;;4943411;28;20198;-79
2023/03/10 05:35:48;;;;;;;1.95;0.90;;;17.30;45.60;;;;;;4959513;28;20268;-79
2023/03/10 05:38:15;;;;;;;2.97;0.85;;;17.40;45.70;;;;;;4958839;28;20209;-79
2023/03/10 05:40:44;;;;;;;0.80;0.80;;;17.40;45.70;;;;;;4958656;28;20202;-81
2023/03/10 05:43:11;;;;;;;0.73;0.70;;;17.40;45.60;;;;;;4958678;28;20245;-81
2023/03/10 05:45:38;;;;;;;0.75;0.75;;;17.30;45.60;;;;;;4958765;28;20206;-81
2023/03/10 05:48:06;;;;;;;0.80;0.80;;;17.30;45.60;;;;;;4942848;28;20228;-80
2023/03/10 05:50:34;;;;;;;1.67;0.90;;;17.30;45.60;;;;;;4959110;28;20198;-80
2023/03/10 05:53:02;;;;;;;0.60;0.60;;;17.40;45.70;;;;;;4960408;28;20587;-80
2023/03/10 05:55:30;;;;;;;1.23;0.85;;;17.40;45.70;;;;;;4959463;28;20320;-80
2023/03/10 05:57:57;;;;;;;1.08;0.95;;;17.30;45.60;;;;;;4958647;28;20218;-81
2023/03/10 06:00:26;;;;;;;0.90;0.90;;;17.30;45.60;;;;;;4958945;28;20622;-81
2023/03/10 06:02:59;;;;;;;1.10;1.00;;;17.30;45.60;;;;;;4959119;28;20403;-81
2023/03/10 06:05:26;;;;;;;0.73;0.73;;;17.40;45.70;;;;;;4959031;28;20280;-80
2023/03/10 06:07:55;;;;;;;0.80;0.80;;;17.30;45.60;;;;;;4958818;28;20221;-81
2023/03/10 06:10:22;;;;;;;0.80;0.80;;;17.40;45.70;;;;;;4958265;28;20206;-82
2023/03/10 06:12:50;;;;;;;1.02;0.93;;;17.40;45.70;;;;;;4959037;28;20202;-82
2023/03/10 06:15:17;;;;;;;1.40;0.88;;;17.40;45.70;;;;;;4958258;28;20625;-82
2023/03/10 06:17:44;;;;;;;0.70;0.70;;;17.40;45.90;;;;;;4958829;28;20226;-82
2023/03/10 06:20:11;;;;;;;2.63;0.93;;;17.40;46.30;;;;;;4958168;28;20300;-82
2023/03/10 06:22:38;;;;;;;2.00;1.08;;;17.40;46.80;;;;;;4958644;28;20194;-82
2023/03/10 06:25:09;;;;;;;0.88;0.88;;;17.50;46.80;;;;;;4958488;28;20202;-82
2023/03/10 06:27:36;;;;;;;1.73;1.20;;;17.40;46.80;;;;;;4957903;28;20630;-82
2023/03/10 06:30:03;;;;;;;1.15;0.90;;;17.50;46.90;;;;;;4958700;28;20720;-82
2023/03/10 06:32:30;;;;;;;1.88;1.10;;;17.50;47.10;;;;;;4959080;28;20202;-82
2023/03/10 06:34:58;;;;;;;1.67;0.90;;;17.50;47.00;;;;;;4958415;28;20351;-82
2023/03/10 06:37:26;;;;;;;2.22;0.70;;;17.50;47.10;;;;;;4958766;28;20324;-82
2023/03/10 06:39:53;;;;;;;0.93;0.70;;;17.50;47.10;;;;;;4958476;28;20202;-82
2023/03/10 06:42:22;;;;;;;0.90;0.70;;;17.50;46.90;;;;;;4958454;28;20229;-82
2023/03/10 06:44:49;;;;;;;1.30;0.88;;;17.50;46.90;;;;;;4960254;28;20700;-83
2023/03/10 06:47:16;;;;;;;1.08;0.98;;;17.60;47.10;;;;;;4958339;28;20284;-82
2023/03/10 06:49:44;;;;;;;1.10;0.70;;;17.50;47.00;;;;;;4959731;28;20699;-84
2023/03/10 06:52:11;;;;;;;0.90;0.90;;;17.50;46.90;;;;;;4942684;28;20329;-82
2023/03/10 06:54:38;;;;;;;0.85;0.70;;;17.60;46.70;;;;;;4959630;28;20633;-82
2023/03/10 06:57:05;;;;;;;0.80;0.80;;;17.60;46.70;;;;;;4957809;28;20252;-80
2023/03/10 06:59:34;;;;;;;1.17;0.68;;;17.60;46.80;;;;;;4958233;28;20198;-81
2023/03/10 07:02:01;;;;;;;1.55;0.90;;;17.60;46.70;;;;;;4962571;28;20655;-82
2023/03/10 07:04:28;;;;;;;0.93;0.80;;;17.70;46.60;;;;;;4962004;28;20269;-82
2023/03/10 07:06:55;;;;;;;1.02;0.93;;;17.70;46.50;;;;;;4945763;28;20218;-82
2023/03/10 07:09:22;;;;;;;0.70;0.70;;;17.80;46.30;;;;;;4961718;28;20206;-81
2023/03/10 07:11:49;;;;;;;0.80;0.80;;;17.90;46.30;;;;;;4961557;28;20642;-82
2023/03/10 07:14:16;;;;;;;0.95;0.80;;;18.00;46.30;;;;;;4961845;28;20293;-82
2023/03/10 07:16:45;;;;;;;0.80;0.80;;;18.00;46.00;;;;;;4946115;28;20688;-81
2023/03/10 07:19:12;;;;;;;0.77;0.77;;;18.10;46.10;;;;;;4961937;28;20198;-82
2023/03/10 07:21:39;;;;;;;0.55;0.55;;;18.00;45.80;;;;;;4961775;28;20664;-82
2023/03/10 07:24:06;;;;;;;1.25;0.90;;;18.10;45.80;;;;;;4961519;28;20221;-80
2023/03/10 07:26:33;;;;;;;0.68;0.68;;;18.10;45.60;;;;;;4962040;28;20229;-81
2023/03/10 07:29:01;;;;;;;1.08;0.82;;;18.20;45.70;;;;;;4961959;28;20198;-82
2023/03/10 07:31:29;;;;;;;2.00;0.80;;;18.20;45.60;;;;;;4961782;28;20209;-82
2023/03/10 07:33:57;;;;;;;1.00;0.80;;;18.30;45.60;;;;;;4946373;28;20198;-82
2023/03/10 07:36:24;;;;;;;2.50;0.75;;;18.40;45.50;;;;;;4962017;28;20213;-81
2023/03/10 07:38:52;;;;;;;1.38;0.93;;;18.40;45.10;;;;;;4961729;28;20253;-81
2023/03/10 07:41:19;;;;;;;0.95;0.88;;;18.50;45.10;;;;;;4961219;28;20206;-81
2023/03/10 07:43:46;;;;;;;0.88;0.80;;;18.50;45.00;;;;;;4961450;28;20224;-81
2023/03/10 07:46:14;;;;;;;0.95;0.80;;;18.50;45.00;;;;;;4961319;28;20712;-81
2023/03/10 07:48:41;;;;;;;1.25;0.75;;;18.60;45.50;;;;;;4961620;28;20272;-83
2023/03/10 07:51:11;;;;;;;0.68;0.60;;;18.60;44.80;;;;;;4945409;28;20221;-83
2023/03/10 07:53:38;;;;;;;0.70;0.70;;;18.60;44.80;;;;;;4961521;28;20190;-83
2023/03/10 07:56:06;;;;;;;0.52;0.52;;;18.60;44.80;;;;;;4961773;28;20232;-83
2023/03/10 07:58:33;;;;;;;0.60;0.60;;;18.60;44.90;;;;;;4961388;28;20253;-83
2023/03/10 08:01:00;;;;;;;0.85;0.85;;;18.60;45.10;;;;;;4962067;28;20627;-83
2023/03/10 08:03:27;;;;;;;0.75;0.75;;;18.60;45.10;;;;;;4960919;28;20313;-83
2023/03/10 08:05:55;;;;;;;0.90;0.90;;;18.60;45.20;;;;;;4961004;28;20301;-83
2023/03/10 08:08:24;;;;;;;1.00;0.90;;;18.60;45.10;;;;;;4961434;28;20202;-83
2023/03/10 08:10:56;;;;;;;0.57;0.57;;;18.60;45.30;;;;;;4961119;28;20201;-83
2023/03/10 08:13:23;;;;;;;0.90;0.90;;;18.60;45.30;;;;;;4960886;28;20194;-83
2023/03/10 08:15:50;;;;;;;0.98;0.60;;;18.60;45.20;;;;;;4961168;28;20195;-83
2023/03/10 08:18:17;;;;;;;0.80;0.80;;;18.60;45.20;;;;;;4978712;28;20563;-83
2023/03/10 08:20:44;;;;;;;0.95;0.80;;;18.50;44.90;;;;;;4984043;28;20190;-82
2023/03/10 08:23:11;;;;;;;0.90;0.80;;;18.50;45.00;;;;;;4962564;28;20261;-82
2023/03/10 08:25:40;;;;;;;0.65;0.65;;;18.50;45.00;;;;;;4962030;28;20653;-82
2023/03/10 08:28:08;;;;;;;0.70;0.70;;;18.50;45.00;;;;;;4960964;28;20222;-82
2023/03/10 08:30:35;;;;;;;1.70;0.85;;;18.50;45.00;;;;;;4968420;28;20289;-82
2023/03/10 08:33:02;;;;;;;1.42;0.85;;;18.50;45.00;;;;;;4975446;28;20206;-82
2023/03/10 08:35:29;;;;;;;0.70;0.70;;;18.50;45.00;;;;;;4997580;28;20197;-82
2023/03/10 08:37:56;;;;;;;0.43;0.43;;;18.50;44.90;;;;;;4980944;28;20201;-82
2023/03/10 08:40:23;;;;;;;0.60;0.52;;;18.50;44.90;;;;;;4965584;28;20213;-82
2023/03/10 08:42:52;;;;;;;0.93;0.80;;;18.50;44.90;;;;;;4981571;28;20206;-82
2023/03/10 08:45:19;;;;;;;0.88;0.63;;;18.50;44.80;;;;;;4981472;28;20249;-82
2023/03/10 08:47:47;;;;;;;0.80;0.73;;;18.60;44.80;;;;;;4981310;28;20724;-82
2023/03/10 08:50:14;;;;;;;1.08;0.80;;;18.60;44.70;;;;;;4949476;28;20205;-82
2023/03/10 08:52:42;;;;;;;0.60;0.60;;;18.60;44.90;;;;;;4969047;28;20213;-82
2023/03/10 08:55:10;;;;;;;1.50;0.70;;;18.60;45.00;;;;;;4962082;28;20190;-82
2023/03/10 08:57:38;;;;;;;1.85;0.90;;;18.60;44.70;;;;;;4965139;28;20222;-82
2023/03/10 09:00:11;;;;;;;0.77;0.77;;;18.60;44.70;;;;;;4964927;28;20202;-83
2023/03/10 09:02:40;;;;;;;0.90;0.90;;;18.70;44.80;;;;;;4964993;28;20202;-83
2023/03/10 09:05:09;;;;;;;0.98;0.90;;;18.70;44.80;;;;;;4965753;28;20258;-83
2023/03/10 09:07:36;;;;;;;0.75;0.75;;;18.80;44.90;;;;;;4950593;28;20221;-83
2023/03/10 09:10:04;;;;;;;1.85;0.90;;;18.80;44.80;;;;;;4969550;28;20206;-83
2023/03/10 09:12:31;;;;;;;0.63;0.63;;;18.80;44.80;;;;;;4967487;28;20210;-83
2023/03/10 09:14:59;;;;;;;0.68;0.68;;;18.80;44.80;;;;;;4962895;28;20202;-83
2023/03/10 09:17:28;;;;;;;0.73;0.70;;;19.00;44.90;;;;;;4962940;28;20236;-82
2023/03/10 09:19:56;;;;;;;0.50;0.50;;;19.00;44.60;;;;;;4963469;28;20282;-82
2023/03/10 09:22:23;;;;;;;0.63;0.60;;;19.10;44.30;;;;;;4962697;28;20212;-82
2023/03/10 09:24:51;;;;;;;0.70;0.70;;;19.20;44.60;;;;;;4961990;28;20221;-82
2023/03/10 09:27:18;;;;;;;0.60;0.60;;;19.30;44.20;;;;;;4961931;28;20222;-83
2023/03/10 09:29:45;;;;;;;0.80;0.70;;;19.40;43.70;;;;;;4961014;28;20201;-83
2023/03/10 09:32:13;;;;;;;1.58;0.80;;;19.50;43.60;;;;;;4960758;28;20696;-83
2023/03/10 09:34:41;;;;;;;0.52;0.52;;;19.70;43.70;;;;;;4977953;28;20225;-83
2023/03/10 09:37:08;;;;;;;0.77;0.70;;;19.80;43.60;;;;;;4959826;28;20697;-83
2023/03/10 09:39:36;;;;;;;1.52;0.75;;;19.80;43.70;;;;;;4960228;28;20600;-83
2023/03/10 09:42:23;;;;;;;0.85;0.75;;;19.90;43.20;;;;;;4960503;28;20206;-83
2023/03/10 09:44:53;;;;;;;0.80;0.60;;;19.90;43.00;;;;;;4961697;28;20226;-83
2023/03/10 09:47:26;;;;;;;0.70;0.70;;;19.90;42.90;;;;;;4960929;28;20312;-83
2023/03/10 09:50:03;;;;;;;0.68;0.68;;;19.90;43.10;;;;;;4959400;28;20190;-83
2023/03/10 09:52:35;;;;;;;0.70;0.70;;;19.90;43.10;;;;;;4959974;28;20198;-82
2023/03/10 09:55:05;;;;;;;0.75;0.63;;;19.80;43.00;;;;;;4939887;28;20677;-83
2023/03/10 09:57:33;;;;;;;0.65;0.60;;;19.80;42.80;;;;;;4975227;28;20593;-83
2023/03/10 10:00:01;;;;;;;0.50;0.50;;;19.80;43.00;;;;;;4975473;28;20261;-83
2023/03/10 10:02:34;;;;;;;1.38;0.98;;;19.80;43.00;;;;;;4984878;28;20193;-83
2023/03/10 10:05:06;;;;;;;0.65;0.65;;;19.80;43.00;;;;;;4964603;28;20214;-83
2023/03/10 10:07:40;;;;;;;0.70;0.70;;;19.80;43.10;;;;;;4964543;28;20225;-83
2023/03/10 10:10:09;;;;;;;0.70;0.70;;;19.80;42.80;;;;;;4963514;28;20633;-83
2023/03/10 10:12:36;;;;;;;0.68;0.68;;;19.90;42.80;;;;;;4947196;28;20201;-83
2023/03/10 10:15:13;;;;;;;0.80;0.80;;;19.90;43.00;;;;;;4962737;28;20197;-82
2023/03/10 10:17:47;;;;;;;0.55;0.55;;;19.90;42.90;;;;;;4962193;28;20222;-82
2023/03/10 10:20:20;;;;;;;0.68;0.68;;;19.90;42.80;;;;;;4961585;28;20202;-82
2023/03/10 10:22:47;;;;;;;0.88;0.55;;;19.90;42.80;;;;;;4962361;28;20213;-82
2023/03/10 10:25:18;;;;;;;0.73;0.60;;;19.90;42.80;;;;;;4946950;28;20213;-82
2023/03/10 10:27:44;;;;;;;0.70;0.60;;;19.90;42.90;;;;;;4961763;28;20222;-82
2023/03/10 10:30:32;;;;;;;0.98;0.75;;;19.90;42.80;;;;;;4961988;28;20261;-82
2023/03/10 10:33:00;;;;;;;0.73;0.52;;;19.90;42.90;;;;;;4962324;28;20209;-82
2023/03/10 10:35:30;;;;;;;0.50;0.50;;;19.90;42.70;;;;;;4948583;28;20644;-82
2023/03/10 10:38:02;;;;;;;0.57;0.57;;;19.80;42.90;;;;;;4963737;28;20696;-82
2023/03/10 10:40:32;;;;;;;0.95;0.75;;;19.90;43.00;;;;;;4962992;28;20238;-82
2023/03/10 10:42:59;;;;;;;0.70;0.70;;;19.80;43.10;;;;;;4946875;28;20202;-82
2023/03/10 10:45:28;;;;;;;0.68;0.57;;;19.80;43.00;;;;;;4946541;28;20267;-82
2023/03/10 10:47:56;;;;;;;0.85;0.80;;;19.90;43.00;;;;;;4962712;28;20221;-82
2023/03/10 10:50:24;;;;;;;0.70;0.70;;;19.90;42.90;;;;;;4962771;28;20237;-81
2023/03/10 10:53:11;;;;;;;1.38;0.65;;;19.80;42.90;;;;;;4963278;28;20253;-81
2023/03/10 10:55:38;;;;;;;0.60;0.60;;;19.80;42.90;;;;;;4962932;28;20214;-81
2023/03/10 10:58:07;;;;;;;1.17;0.80;;;19.80;42.80;;;;;;4963000;28;20300;-82
2023/03/10 11:00:35;;;;;;;0.65;0.65;;;19.80;43.00;;;;;;4962455;28;20267;-82
2023/03/10 11:03:18;;;;;;;0.80;0.77;;;19.80;43.10;;;;;;4962161;28;20580;-81
2023/03/10 11:05:45;;;;;;;0.50;0.50;;;19.80;42.80;;;;;;4964690;28;20685;-82
2023/03/10 11:08:29;;;;;;;0.73;0.57;;;19.80;42.90;;;;;;4965178;28;20237;-82
2023/03/10 11:10:58;;;;;;;0.68;0.65;;;19.80;43.00;;;;;;4964980;28;20225;-82
2023/03/10 11:13:28;;;;;;;0.60;0.60;;;19.80;43.10;;;;;;4964524;28;20210;-82
2023/03/10 11:15:58;;;;;;;0.88;0.85;;;19.80;43.70;;;;;;4964241;28;20194;-82
2023/03/10 11:18:26;;;;;;;0.70;0.70;;;19.80;42.90;;;;;;4963472;28;20208;-82
2023/03/10 11:20:57;;;;;;;0.68;0.50;;;19.80;42.70;;;;;;4964182;28;20209;-83
2023/03/10 11:23:28;;;;;;;1.13;0.70;;;19.80;42.70;;;;;;4963242;28;20198;-82
2023/03/10 11:25:57;;;;;;;0.52;0.52;;;19.90;42.80;;;;;;4963041;28;20210;-82
2023/03/10 11:28:32;;;;;;;0.85;0.70;;;19.90;42.80;;;;;;4963356;28;20210;-82
2023/03/10 11:31:04;;;;;;;1.00;0.80;;;19.90;42.70;;;;;;4947252;28;20661;-82
2023/03/10 11:33:34;;;;;;;1.35;0.80;;;19.90;42.70;;;;;;4945955;28;20304;-82
2023/03/10 11:36:06;;;;;;;0.60;0.60;;;19.90;42.50;;;;;;4961251;28;20198;-82
2023/03/10 11:38:37;;;;;;;0.68;0.68;;;20.00;42.60;;;;;;4961354;28;20198;-82
2023/03/10 11:41:06;;;;;;;0.93;0.77;;;20.00;42.50;;;;;;4961593;28;20194;-82
2023/03/10 11:43:38;;;;;;;0.70;0.70;;;20.00;42.40;;;;;;4961015;28;20202;-82
2023/03/10 11:46:07;;;;;;;0.70;0.55;;;20.00;42.40;;;;;;4959966;28;20227;-82
2023/03/10 11:48:55;;;;;;;0.75;0.65;;;20.00;42.40;;;;;;4961416;28;20198;-82
2023/03/10 11:51:26;;;;;;;0.50;0.40;;;20.00;42.40;;;;;;4975346;28;20284;-82
2023/03/10 11:53:56;;;;;;;0.95;0.47;;;20.00;42.30;;;;;;4962028;28;20285;-82
2023/03/10 11:56:24;;;;;;;0.75;0.75;;;20.00;42.40;;;;;;4962002;28;20436;-82
2023/03/10 11:58:53;;;;;;;0.77;0.70;;;20.00;42.30;;;;;;4961034;28;20209;-82
2023/03/10 12:01:23;;;;;;;0.57;0.50;;;20.00;42.30;;;;;;4960753;28;20206;-82
2023/03/10 12:03:55;;;;;;;1.33;0.90;;;20.10;42.30;;;;;;4960706;28;20229;-82
2023/03/10 12:06:25;;;;;;;0.77;0.60;;;20.00;42.30;;;;;;4960971;28;20297;-84
2023/03/10 12:08:55;;;;;;;0.77;0.55;;;20.00;42.20;;;;;;4960076;28;20206;-84
2023/03/10 12:11:24;;;;;;;1.00;0.70;;;20.00;42.20;;;;;;4960437;28;20209;-84
2023/03/10 12:13:52;;;;;;;1.00;0.90;;;20.00;42.20;;;;;;4960329;28;20292;-82
2023/03/10 12:16:22;;;;;;;0.50;0.50;;;20.00;42.30;;;;;;4960318;28;20317;-82
2023/03/10 12:18:49;;;;;;;0.57;0.57;;;20.00;42.30;;;;;;4977649;28;20197;-82
2023/03/10 12:21:20;;;;;;;0.80;0.50;;;20.00;42.30;;;;;;4960505;28;20198;-82
2023/03/10 12:23:49;;;;;;;1.17;0.68;;;19.90;42.30;;;;;;4960962;28;20649;-82
2023/03/10 12:26:33;;;;;;;0.73;0.60;;;19.90;42.20;;;;;;4960798;28;20230;-82
2023/03/10 12:29:33;;;;;;;0.60;0.60;;;19.90;42.30;;;;;;4959484;28;20213;-82
2023/03/10 12:32:02;;;;;;;0.60;0.60;;;20.00;42.30;;;;;;4960043;28;20194;-82
2023/03/10 12:34:30;;;;;;;0.93;0.63;;;20.00;42.20;;;;;;4960437;28;20208;-82
2023/03/10 12:37:04;;;;;;;0.50;0.50;;;20.00;42.20;;;;;;4959992;28;20645;-81
2023/03/10 12:39:39;;;;;;;0.60;0.60;;;20.00;42.20;;;;;;4960222;28;20224;-82
2023/03/10 12:42:30;;;;;;;0.60;0.60;;;20.00;42.30;;;;;;4960175;28;20209;-82
2023/03/10 12:45:07;;;;;;;1.05;0.63;;;20.00;42.20;;;;;;4960754;28;20281;-82
2023/03/10 12:47:56;;;;;;;0.68;0.68;;;20.00;42.20;;;;;;4959759;28;20229;-84
2023/03/10 12:50:41;;;;;;;0.50;0.50;;;19.90;42.20;;;;;;4959873;28;20302;-84
2023/03/10 12:53:23;;;;;;;0.63;0.63;;;20.00;42.30;;;;;;4961290;28;20221;-82
2023/03/10 12:56:05;;;;;;;0.82;0.60;;;19.90;42.10;;;;;;4960957;28;20638;-82
2023/03/10 12:58:34;;;;;;;0.50;0.50;;;20.00;42.30;;;;;;4959396;28;20194;-82